createdAt,value
2019-01-16T00:00:21.015Z,0
2019-01-16T00:01:21.003Z,0
2019-01-16T00:02:20.994Z,0
2019-01-16T00:03:20.978Z,0
2019-01-16T00:04:20.973Z,0
2019-01-16T00:05:20.974Z,0
2019-01-16T00:06:20.948Z,0
2019-01-16T00:07:20.932Z,0
2019-01-16T00:08:20.927Z,0
2019-01-16T00:09:20.915Z,0
2019-01-16T00:10:21.144Z,0
2019-01-16T00:11:20.883Z,0
2019-01-16T00:12:20.874Z,0
2019-01-16T00:13:20.857Z,0
2019-01-16T00:14:20.846Z,0
2019-01-16T00:15:20.835Z,0
2019-01-16T00:16:20.820Z,0
2019-01-16T00:17:20.810Z,0
2019-01-16T00:18:26.683Z,0
2019-01-16T00:19:20.786Z,0
2019-01-16T00:20:20.774Z,0
2019-01-16T00:21:20.763Z,0
2019-01-16T00:22:20.758Z,0
2019-01-16T00:23:20.740Z,0
2019-01-16T00:24:20.733Z,0
2019-01-16T00:25:20.718Z,0
2019-01-16T00:26:20.700Z,0
2019-01-16T00:27:20.694Z,0
2019-01-16T00:28:20.675Z,0
2019-01-16T00:29:20.684Z,0
2019-01-16T00:30:20.656Z,0
2019-01-16T00:31:20.643Z,0
2019-01-16T00:32:20.631Z,0
2019-01-16T00:33:20.623Z,0
2019-01-16T00:34:20.606Z,0
2019-01-16T00:35:20.600Z,0
2019-01-16T00:36:20.585Z,0
2019-01-16T00:37:20.576Z,0
2019-01-16T00:38:20.561Z,0
2019-01-16T00:39:20.550Z,0
2019-01-16T00:40:20.533Z,0
2019-01-16T00:41:20.781Z,0
2019-01-16T00:42:20.517Z,0
2019-01-16T00:43:20.504Z,0
2019-01-16T00:44:20.490Z,0
2019-01-16T00:45:20.474Z,0
2019-01-16T00:46:20.463Z,0
2019-01-16T00:47:20.453Z,0
2019-01-16T00:48:26.979Z,0
2019-01-16T00:49:20.433Z,0
2019-01-16T00:50:20.434Z,0
2019-01-16T00:51:20.409Z,0
2019-01-16T00:52:20.393Z,0
2019-01-16T00:53:20.379Z,0
2019-01-16T00:54:20.384Z,0
2019-01-16T00:55:20.356Z,0
2019-01-16T00:56:20.342Z,0
2019-01-16T00:57:20.332Z,0
2019-01-16T00:58:20.325Z,0
2019-01-16T00:59:20.437Z,0
2019-01-16T01:00:20.301Z,0
2019-01-16T01:01:20.304Z,0
2019-01-16T01:02:20.284Z,0
2019-01-16T01:03:20.259Z,0
2019-01-16T01:04:20.255Z,0
2019-01-16T01:05:20.240Z,0
2019-01-16T01:06:20.234Z,0
2019-01-16T01:07:20.215Z,0
2019-01-16T01:08:20.209Z,0
2019-01-16T01:09:20.212Z,0
2019-01-16T01:10:20.179Z,0
2019-01-16T01:11:20.176Z,0
2019-01-16T01:12:20.406Z,0
2019-01-16T01:13:20.217Z,0
2019-01-16T01:14:20.134Z,0
2019-01-16T01:15:20.116Z,0
2019-01-16T01:16:20.107Z,0
2019-01-16T01:17:20.094Z,0
2019-01-16T01:18:20.089Z,0
2019-01-16T01:19:20.078Z,0
2019-01-16T01:20:20.066Z,0
2019-01-16T01:21:20.051Z,0
2019-01-16T01:22:20.040Z,0
2019-01-16T01:23:20.027Z,0
2019-01-16T01:24:20.018Z,0
2019-01-16T01:25:20.017Z,0
2019-01-16T01:26:19.997Z,0
2019-01-16T01:27:19.976Z,0
2019-01-16T01:28:19.970Z,0
2019-01-16T01:29:19.977Z,0
2019-01-16T01:30:19.955Z,0
2019-01-16T01:31:19.929Z,0
2019-01-16T01:32:19.918Z,0
2019-01-16T01:33:19.907Z,0
2019-01-16T01:34:21.483Z,0
2019-01-16T01:35:19.890Z,0
2019-01-16T01:36:19.894Z,0
2019-01-16T01:37:19.863Z,0
2019-01-16T01:38:19.847Z,0
2019-01-16T01:39:19.838Z,0
2019-01-16T01:40:19.822Z,0
2019-01-16T01:41:19.814Z,0
2019-01-16T01:42:19.804Z,0
2019-01-16T01:43:20.045Z,0
2019-01-16T01:44:19.777Z,0
2019-01-16T01:45:19.771Z,0
2019-01-16T01:46:19.755Z,0
2019-01-16T01:47:19.752Z,0
2019-01-16T01:48:19.738Z,0
2019-01-16T01:49:19.724Z,0
2019-01-16T01:50:19.710Z,0
2019-01-16T01:51:21.368Z,0
2019-01-16T01:52:19.696Z,0
2019-01-16T01:53:19.680Z,0
2019-01-16T01:54:19.662Z,0
2019-01-16T01:55:19.654Z,0
2019-01-16T01:56:19.638Z,0
2019-01-16T01:57:19.791Z,0
2019-01-16T01:58:19.624Z,0
2019-01-16T01:59:19.607Z,0
2019-01-16T02:00:21.358Z,0
2019-01-16T02:01:19.584Z,0
2019-01-16T02:02:19.571Z,0
2019-01-16T02:03:19.565Z,0
2019-01-16T02:04:19.548Z,0
2019-01-16T02:05:19.533Z,0
2019-01-16T02:06:19.523Z,0
2019-01-16T02:07:19.512Z,0
2019-01-16T02:08:19.503Z,0
2019-01-16T02:09:19.493Z,0
2019-01-16T02:10:19.479Z,0
2019-01-16T02:11:19.470Z,0
2019-01-16T02:12:19.471Z,0
2019-01-16T02:13:19.443Z,0
2019-01-16T02:14:19.679Z,0
2019-01-16T02:15:20.096Z,0
2019-01-16T02:16:19.416Z,0
2019-01-16T02:17:19.397Z,0
2019-01-16T02:18:19.419Z,0
2019-01-16T02:19:19.379Z,0
2019-01-16T02:20:19.362Z,0
2019-01-16T02:21:19.359Z,0
2019-01-16T02:22:19.337Z,0
2019-01-16T02:23:19.330Z,0
2019-01-16T02:24:19.322Z,0
2019-01-16T02:25:19.306Z,0
2019-01-16T02:26:19.330Z,0
2019-01-16T02:27:19.278Z,0
2019-01-16T02:28:19.042Z,0
2019-01-16T02:29:19.259Z,0
2019-01-16T02:30:19.279Z,0
2019-01-16T02:31:19.248Z,0
2019-01-16T02:32:19.238Z,0
2019-01-16T02:33:19.226Z,0
2019-01-16T02:34:19.203Z,0
2019-01-16T02:35:19.208Z,0
2019-01-16T02:36:19.183Z,0
2019-01-16T02:37:19.168Z,0
2019-01-16T02:38:19.160Z,0
2019-01-16T02:39:19.162Z,0
2019-01-16T02:40:19.137Z,0
2019-01-16T02:41:19.135Z,0
2019-01-16T02:42:19.114Z,0
2019-01-16T02:43:19.111Z,0
2019-01-16T02:44:19.094Z,0
2019-01-16T02:45:19.090Z,0
2019-01-16T02:46:19.313Z,0
2019-01-16T02:47:19.048Z,0
2019-01-16T02:48:19.048Z,0
2019-01-16T02:49:19.026Z,0
2019-01-16T02:50:19.029Z,0
2019-01-16T02:51:19.109Z,0
2019-01-16T02:52:19.005Z,0
2019-01-16T02:53:18.997Z,0
2019-01-16T02:54:18.972Z,0
2019-01-16T02:55:18.965Z,0
2019-01-16T02:56:19.279Z,0
2019-01-16T02:57:18.713Z,0
2019-01-16T02:58:18.935Z,0
2019-01-16T02:59:18.927Z,0
2019-01-16T03:00:18.914Z,0
2019-01-16T03:01:18.901Z,0
2019-01-16T03:02:18.905Z,0
2019-01-16T03:03:18.894Z,0
2019-01-16T03:04:18.881Z,0
2019-01-16T03:05:18.851Z,0
2019-01-16T03:06:18.590Z,0
2019-01-16T03:07:18.834Z,0
2019-01-16T03:08:18.808Z,0
2019-01-16T03:09:18.804Z,0
2019-01-16T03:10:18.817Z,0
2019-01-16T03:11:18.775Z,0
2019-01-16T03:12:18.783Z,0
2019-01-16T03:13:18.758Z,0
2019-01-16T03:14:18.745Z,0
2019-01-16T03:15:18.733Z,0
2019-01-16T03:16:18.746Z,0
2019-01-16T03:17:18.974Z,0
2019-01-16T03:18:18.699Z,0
2019-01-16T03:19:18.702Z,0
2019-01-16T03:20:18.681Z,0
2019-01-16T03:21:18.751Z,0
2019-01-16T03:22:18.677Z,0
2019-01-16T03:23:18.647Z,0
2019-01-16T03:24:20.151Z,0
2019-01-16T03:25:18.664Z,0
2019-01-16T03:26:18.611Z,0
2019-01-16T03:27:18.601Z,0
2019-01-16T03:28:18.592Z,0
2019-01-16T03:29:18.576Z,0
2019-01-16T03:30:18.608Z,0
2019-01-16T03:31:18.572Z,0
2019-01-16T03:32:18.585Z,0
2019-01-16T03:33:18.673Z,0
2019-01-16T03:34:18.524Z,0
2019-01-16T03:35:18.505Z,0
2019-01-16T03:36:18.255Z,0
2019-01-16T03:37:18.480Z,0
2019-01-16T03:38:18.476Z,0
2019-01-16T03:39:18.459Z,0
2019-01-16T03:40:18.481Z,0
2019-01-16T03:41:18.436Z,0
2019-01-16T03:42:18.433Z,0
2019-01-16T03:43:18.407Z,0
2019-01-16T03:44:18.399Z,0
2019-01-16T03:45:18.394Z,0
2019-01-16T03:46:18.386Z,0
2019-01-16T03:47:18.384Z,0
2019-01-16T03:48:18.596Z,0
2019-01-16T03:49:23.437Z,0
2019-01-16T03:50:18.332Z,0
2019-01-16T03:51:18.324Z,0
2019-01-16T03:52:18.314Z,0
2019-01-16T03:53:18.295Z,0
2019-01-16T03:54:18.290Z,0
2019-01-16T03:55:18.284Z,0
2019-01-16T03:56:18.283Z,0
2019-01-16T03:57:18.050Z,0
2019-01-16T03:58:18.268Z,0
2019-01-16T03:59:18.225Z,0
2019-01-16T04:00:18.236Z,0
2019-01-16T04:01:18.202Z,0
2019-01-16T04:02:18.192Z,0
2019-01-16T04:03:18.173Z,0
2019-01-16T04:04:18.167Z,0
2019-01-16T04:05:18.160Z,0
2019-01-16T04:06:18.150Z,0
2019-01-16T04:07:18.131Z,0
2019-01-16T04:08:18.177Z,0
2019-01-16T04:09:18.110Z,0
2019-01-16T04:10:18.105Z,0
2019-01-16T04:11:18.091Z,0
2019-01-16T04:12:18.094Z,0
2019-01-16T04:13:18.064Z,0
2019-01-16T04:14:18.054Z,0
2019-01-16T04:15:18.041Z,0
2019-01-16T04:16:18.040Z,0
2019-01-16T04:17:18.015Z,0
2019-01-16T04:18:18.005Z,0
2019-01-16T04:19:26.532Z,0
2019-01-16T04:20:17.994Z,0
2019-01-16T04:21:17.967Z,0
2019-01-16T04:22:17.959Z,0
2019-01-16T04:23:17.944Z,0
2019-01-16T04:24:17.943Z,0
2019-01-16T04:25:17.929Z,0
2019-01-16T04:26:17.915Z,0
2019-01-16T04:27:17.903Z,0
2019-01-16T04:28:17.885Z,0
2019-01-16T04:29:17.882Z,0
2019-01-16T04:30:17.875Z,0
2019-01-16T04:31:17.856Z,0
2019-01-16T04:32:17.848Z,0
2019-01-16T04:33:17.831Z,0
2019-01-16T04:34:17.817Z,0
2019-01-16T04:35:17.809Z,0
2019-01-16T04:36:17.792Z,0
2019-01-16T04:37:17.782Z,0
2019-01-16T04:38:17.775Z,0
2019-01-16T04:39:17.765Z,0
2019-01-16T04:40:17.744Z,0
2019-01-16T04:41:17.771Z,0
2019-01-16T04:42:17.779Z,0
2019-01-16T04:43:17.717Z,0
2019-01-16T04:44:19.111Z,0
2019-01-16T04:45:17.689Z,0
2019-01-16T04:46:17.676Z,0
2019-01-16T04:47:17.672Z,0
2019-01-16T04:48:17.660Z,0
2019-01-16T04:49:17.658Z,0
2019-01-16T04:50:17.696Z,0
2019-01-16T04:51:17.379Z,0
2019-01-16T04:52:17.623Z,0
2019-01-16T04:53:17.627Z,0
2019-01-16T04:54:17.597Z,0
2019-01-16T04:55:17.325Z,0
2019-01-16T04:56:17.563Z,0
2019-01-16T04:57:17.546Z,0
2019-01-16T04:58:17.566Z,0
2019-01-16T04:59:17.528Z,0
2019-01-16T05:00:17.516Z,0
2019-01-16T05:01:17.520Z,0
2019-01-16T05:02:17.491Z,0
2019-01-16T05:03:17.477Z,0
2019-01-16T05:04:17.463Z,0
2019-01-16T05:05:17.461Z,0
2019-01-16T05:06:17.209Z,0
2019-01-16T05:07:17.423Z,0
2019-01-16T05:08:17.412Z,0
2019-01-16T05:09:17.166Z,0
2019-01-16T05:10:17.404Z,0
2019-01-16T05:11:17.379Z,0
2019-01-16T05:12:17.369Z,0
2019-01-16T05:13:17.372Z,0
2019-01-16T05:14:17.352Z,0
2019-01-16T05:15:17.329Z,0
2019-01-16T05:16:17.336Z,0
2019-01-16T05:17:17.392Z,0
2019-01-16T05:18:17.304Z,0
2019-01-16T05:19:17.296Z,0
2019-01-16T05:20:17.281Z,0
2019-01-16T05:21:17.261Z,0
2019-01-16T05:22:17.499Z,0
2019-01-16T05:23:17.241Z,0
2019-01-16T05:24:17.233Z,0
2019-01-16T05:25:17.234Z,0
2019-01-16T05:26:17.221Z,0
2019-01-16T05:27:17.199Z,0
2019-01-16T05:28:17.188Z,0
2019-01-16T05:29:17.231Z,0
2019-01-16T05:30:17.163Z,0
2019-01-16T05:31:17.160Z,0
2019-01-16T05:32:17.140Z,0
2019-01-16T05:33:16.886Z,0
2019-01-16T05:34:17.111Z,0
2019-01-16T05:35:17.100Z,0
2019-01-16T05:36:17.086Z,0
2019-01-16T05:37:17.084Z,0
2019-01-16T05:38:17.069Z,0
2019-01-16T05:39:17.058Z,0
2019-01-16T05:40:17.111Z,0
2019-01-16T05:41:17.047Z,0
2019-01-16T05:42:17.044Z,0
2019-01-16T05:43:17.004Z,0
2019-01-16T05:44:17.033Z,0
2019-01-16T05:45:16.984Z,0
2019-01-16T05:46:16.967Z,0
2019-01-16T05:47:16.953Z,0
2019-01-16T05:48:17.008Z,0
2019-01-16T05:49:16.941Z,0
2019-01-16T05:50:16.928Z,0
2019-01-16T05:51:16.908Z,0
2019-01-16T05:52:16.898Z,0
2019-01-16T05:53:17.149Z,0
2019-01-16T05:54:16.870Z,0
2019-01-16T05:55:16.863Z,0
2019-01-16T05:56:16.850Z,0
2019-01-16T05:57:16.834Z,0
2019-01-16T05:58:16.852Z,0
2019-01-16T05:59:16.821Z,0
2019-01-16T06:00:16.807Z,0
2019-01-16T06:01:16.793Z,0
2019-01-16T06:02:16.796Z,0
2019-01-16T06:03:16.766Z,0
2019-01-16T06:04:16.764Z,0
2019-01-16T06:05:16.760Z,0
2019-01-16T06:06:16.744Z,0
2019-01-16T06:07:16.726Z,0
2019-01-16T06:08:16.719Z,0
2019-01-16T06:09:17.165Z,0
2019-01-16T06:10:16.705Z,0
2019-01-16T06:11:16.690Z,0
2019-01-16T06:12:16.662Z,0
2019-01-16T06:13:16.656Z,0
2019-01-16T06:14:16.396Z,0
2019-01-16T06:15:16.629Z,0
2019-01-16T06:16:16.615Z,0
2019-01-16T06:17:16.597Z,0
2019-01-16T06:18:16.592Z,0
2019-01-16T06:19:16.578Z,0
2019-01-16T06:20:16.568Z,0
2019-01-16T06:21:16.556Z,0
2019-01-16T06:22:16.542Z,0
2019-01-16T06:23:16.532Z,0
2019-01-16T06:24:16.833Z,0
2019-01-16T06:25:16.528Z,0
2019-01-16T06:26:16.496Z,0
2019-01-16T06:27:16.485Z,0
2019-01-16T06:28:16.474Z,0
2019-01-16T06:29:16.462Z,0
2019-01-16T06:30:16.460Z,0
2019-01-16T06:31:16.436Z,0
2019-01-16T06:32:16.426Z,0
2019-01-16T06:33:16.415Z,0
2019-01-16T06:34:16.419Z,0
2019-01-16T06:35:16.404Z,0
2019-01-16T06:36:16.378Z,0
2019-01-16T06:37:16.368Z,0
2019-01-16T06:38:16.355Z,0
2019-01-16T06:39:16.343Z,0
2019-01-16T06:40:16.334Z,0
2019-01-16T06:41:16.320Z,0
2019-01-16T06:42:16.312Z,0
2019-01-16T06:43:16.296Z,0
2019-01-16T06:44:16.283Z,0
2019-01-16T06:45:16.276Z,0
2019-01-16T06:46:16.268Z,0
2019-01-16T06:47:16.251Z,0
2019-01-16T06:48:16.238Z,0
2019-01-16T06:49:16.228Z,0
2019-01-16T06:50:23.512Z,0
2019-01-16T06:51:16.206Z,0
2019-01-16T06:52:16.191Z,0
2019-01-16T06:53:16.182Z,0
2019-01-16T06:54:16.169Z,0
2019-01-16T06:55:16.158Z,0
2019-01-16T06:56:16.423Z,0
2019-01-16T06:57:16.131Z,0
2019-01-16T06:58:16.120Z,0
2019-01-16T06:59:15.865Z,0
2019-01-16T07:00:15.865Z,0
2019-01-16T07:01:16.087Z,0
2019-01-16T07:02:16.079Z,0
2019-01-16T07:03:16.149Z,0
2019-01-16T07:04:16.058Z,0
2019-01-16T07:05:16.048Z,0
2019-01-16T07:06:15.786Z,0
2019-01-16T07:07:15.777Z,5
2019-01-16T07:08:16.011Z,5
2019-01-16T07:09:15.999Z,5
2019-01-16T07:10:15.982Z,5
2019-01-16T07:11:15.729Z,5
2019-01-16T07:12:15.956Z,5
2019-01-16T07:13:15.944Z,5
2019-01-16T07:14:15.975Z,5
2019-01-16T07:15:15.927Z,5
2019-01-16T07:16:15.927Z,5
2019-01-16T07:17:15.896Z,10
2019-01-16T07:18:15.890Z,10
2019-01-16T07:19:15.888Z,10
2019-01-16T07:20:19.473Z,10
2019-01-16T07:21:15.870Z,10
2019-01-16T07:22:15.836Z,10
2019-01-16T07:23:15.829Z,15
2019-01-16T07:24:15.818Z,20
2019-01-16T07:25:15.803Z,20
2019-01-16T07:26:15.795Z,20
2019-01-16T07:27:15.783Z,15
2019-01-16T07:28:15.773Z,15
2019-01-16T07:29:15.757Z,20
2019-01-16T07:30:15.754Z,20
2019-01-16T07:31:15.735Z,20
2019-01-16T07:32:15.725Z,25
2019-01-16T07:33:15.712Z,25
2019-01-16T07:34:15.697Z,30
2019-01-16T07:35:15.718Z,30
2019-01-16T07:36:15.675Z,35
2019-01-16T07:37:15.667Z,35
2019-01-16T07:38:15.658Z,35
2019-01-16T07:39:15.664Z,35
2019-01-16T07:40:15.632Z,35
2019-01-16T07:41:15.632Z,30
2019-01-16T07:42:15.623Z,25
2019-01-16T07:43:15.601Z,30
2019-01-16T07:44:15.581Z,30
2019-01-16T07:45:15.570Z,25
2019-01-16T07:46:15.557Z,25
2019-01-16T07:47:15.595Z,25
2019-01-16T07:48:15.536Z,25
2019-01-16T07:49:15.523Z,25
2019-01-16T07:50:22.159Z,25
2019-01-16T07:51:15.505Z,25
2019-01-16T07:52:15.490Z,25
2019-01-16T07:53:15.500Z,25
2019-01-16T07:54:15.470Z,25
2019-01-16T07:55:15.458Z,30
2019-01-16T07:56:15.442Z,30
2019-01-16T07:57:15.428Z,35
2019-01-16T07:58:15.672Z,40
2019-01-16T07:59:21.663Z,45
2019-01-16T08:00:15.406Z,50
2019-01-16T08:01:15.387Z,55
2019-01-16T08:02:15.380Z,60
2019-01-16T08:03:15.425Z,65
2019-01-16T08:04:15.351Z,65
2019-01-16T08:05:15.341Z,65
2019-01-16T08:06:15.336Z,60
2019-01-16T08:07:15.325Z,50
2019-01-16T08:08:15.303Z,40
2019-01-16T08:09:15.299Z,40
2019-01-16T08:10:15.282Z,35
2019-01-16T08:11:15.273Z,35
2019-01-16T08:12:15.257Z,35
2019-01-16T08:13:15.252Z,30
2019-01-16T08:14:15.235Z,35
2019-01-16T08:15:15.227Z,40
2019-01-16T08:16:15.280Z,40
2019-01-16T08:17:15.201Z,35
2019-01-16T08:18:15.187Z,35
2019-01-16T08:19:15.179Z,35
2019-01-16T08:20:15.204Z,35
2019-01-16T08:21:15.165Z,40
2019-01-16T08:22:15.146Z,40
2019-01-16T08:23:15.135Z,45
2019-01-16T08:24:15.125Z,40
2019-01-16T08:25:15.109Z,30
2019-01-16T08:26:15.095Z,25
2019-01-16T08:27:15.084Z,30
2019-01-16T08:28:15.074Z,35
2019-01-16T08:29:15.336Z,50
2019-01-16T08:30:15.091Z,55
2019-01-16T08:31:15.044Z,65
2019-01-16T08:32:15.032Z,60
2019-01-16T08:33:15.022Z,65
2019-01-16T08:34:15.013Z,75
2019-01-16T08:35:14.997Z,60
2019-01-16T08:36:14.986Z,55
2019-01-16T08:37:14.977Z,50
2019-01-16T08:38:15.170Z,55
2019-01-16T08:39:15.017Z,50
2019-01-16T08:40:14.947Z,55
2019-01-16T08:41:14.930Z,55
2019-01-16T08:42:14.917Z,55
2019-01-16T08:43:14.908Z,55
2019-01-16T08:44:20.844Z,45
2019-01-16T08:45:14.924Z,45
2019-01-16T08:46:14.882Z,55
2019-01-16T08:47:14.856Z,50
2019-01-16T08:48:14.852Z,45
2019-01-16T08:49:14.902Z,50
2019-01-16T08:50:14.829Z,50
2019-01-16T08:51:14.898Z,50
2019-01-16T08:52:14.562Z,55
2019-01-16T08:53:14.792Z,55
2019-01-16T08:54:14.849Z,55
2019-01-16T08:55:14.773Z,55
2019-01-16T08:56:14.764Z,50
2019-01-16T08:57:14.752Z,45
2019-01-16T08:58:14.744Z,40
2019-01-16T08:59:14.723Z,40
2019-01-16T09:00:14.964Z,35
2019-01-16T09:01:14.706Z,30
2019-01-16T09:02:14.691Z,35
2019-01-16T09:03:14.734Z,40
2019-01-16T09:04:14.666Z,40
2019-01-16T09:05:14.658Z,35
2019-01-16T09:06:14.652Z,40
2019-01-16T09:07:14.635Z,45
2019-01-16T09:08:14.625Z,55
2019-01-16T09:09:14.611Z,55
2019-01-16T09:10:14.628Z,55
2019-01-16T09:11:14.585Z,60
2019-01-16T09:12:14.581Z,65
2019-01-16T09:13:14.567Z,60
2019-01-16T09:14:14.556Z,50
2019-01-16T09:15:14.551Z,45
2019-01-16T09:16:14.540Z,40
2019-01-16T09:17:14.530Z,40
2019-01-16T09:18:14.519Z,45
2019-01-16T09:19:14.510Z,45
2019-01-16T09:20:14.554Z,40
2019-01-16T09:21:14.484Z,35
2019-01-16T09:22:14.468Z,35
2019-01-16T09:23:14.464Z,45
2019-01-16T09:24:14.449Z,45
2019-01-16T09:25:14.446Z,50
2019-01-16T09:26:14.424Z,65
2019-01-16T09:27:14.411Z,70
2019-01-16T09:28:14.399Z,60
2019-01-16T09:29:14.386Z,60
2019-01-16T09:30:14.386Z,60
2019-01-16T09:31:14.615Z,65
2019-01-16T09:32:14.355Z,65
2019-01-16T09:33:14.341Z,65
2019-01-16T09:34:14.329Z,50
2019-01-16T09:35:14.327Z,50
2019-01-16T09:36:14.313Z,45
2019-01-16T09:37:14.294Z,40
2019-01-16T09:38:14.286Z,40
2019-01-16T09:39:14.275Z,50
2019-01-16T09:40:14.267Z,45
2019-01-16T09:41:14.298Z,45
2019-01-16T09:42:14.447Z,50
2019-01-16T09:43:14.232Z,55
2019-01-16T09:44:14.220Z,60
2019-01-16T09:45:14.210Z,55
2019-01-16T09:46:14.197Z,55
2019-01-16T09:47:14.187Z,55
2019-01-16T09:48:14.187Z,50
2019-01-16T09:49:14.162Z,45
2019-01-16T09:50:14.157Z,50
2019-01-16T09:51:14.143Z,50
2019-01-16T09:52:14.136Z,55
2019-01-16T09:53:14.123Z,60
2019-01-16T09:54:14.109Z,60
2019-01-16T09:55:14.155Z,65
2019-01-16T09:56:14.157Z,55
2019-01-16T09:57:14.076Z,50
2019-01-16T09:58:14.119Z,45
2019-01-16T09:59:14.058Z,50
2019-01-16T10:00:14.044Z,55
2019-01-16T10:01:14.038Z,60
2019-01-16T10:02:14.021Z,60
2019-01-16T10:03:14.260Z,60
2019-01-16T10:04:14.007Z,60
2019-01-16T10:05:13.991Z,55
2019-01-16T10:06:13.983Z,50
2019-01-16T10:07:13.968Z,45
2019-01-16T10:08:13.959Z,50
2019-01-16T10:09:13.939Z,60
2019-01-16T10:10:13.935Z,65
2019-01-16T10:11:13.919Z,65
2019-01-16T10:12:13.914Z,70
2019-01-16T10:13:13.903Z,70
2019-01-16T10:14:13.885Z,70
2019-01-16T10:15:13.876Z,65
2019-01-16T10:16:13.873Z,75
2019-01-16T10:17:13.851Z,85
2019-01-16T10:18:14.083Z,95
2019-01-16T10:19:13.834Z,95
2019-01-16T10:20:13.824Z,85
2019-01-16T10:21:13.808Z,75
2019-01-16T10:22:13.801Z,65
2019-01-16T10:23:13.789Z,65
2019-01-16T10:24:13.777Z,65
2019-01-16T10:25:13.766Z,70
2019-01-16T10:26:13.753Z,70
2019-01-16T10:27:13.748Z,65
2019-01-16T10:28:13.731Z,70
2019-01-16T10:29:13.718Z,65
2019-01-16T10:30:13.708Z,65
2019-01-16T10:31:13.698Z,65
2019-01-16T10:32:13.707Z,55
2019-01-16T10:33:13.671Z,50
2019-01-16T10:34:13.967Z,55
2019-01-16T10:35:13.653Z,70
2019-01-16T10:36:13.639Z,80
2019-01-16T10:37:13.630Z,80
2019-01-16T10:38:13.618Z,80
2019-01-16T10:39:13.612Z,75
2019-01-16T10:40:13.601Z,70
2019-01-16T10:41:13.349Z,70
2019-01-16T10:42:13.576Z,70
2019-01-16T10:43:13.581Z,70
2019-01-16T10:44:13.556Z,70
2019-01-16T10:45:13.547Z,70
2019-01-16T10:46:13.534Z,70
2019-01-16T10:47:13.532Z,70
2019-01-16T10:48:13.517Z,65
2019-01-16T10:49:13.501Z,65
2019-01-16T10:50:13.502Z,60
2019-01-16T10:51:13.481Z,60
2019-01-16T10:52:13.477Z,65
2019-01-16T10:53:13.456Z,70
2019-01-16T10:54:13.445Z,70
2019-01-16T10:55:13.438Z,75
2019-01-16T10:56:13.433Z,80
2019-01-16T10:57:13.471Z,85
2019-01-16T10:58:13.413Z,90
2019-01-16T10:59:13.403Z,95
2019-01-16T11:00:13.382Z,100
2019-01-16T11:01:13.374Z,100
2019-01-16T11:02:13.359Z,105
2019-01-16T11:03:13.348Z,110
2019-01-16T11:04:13.337Z,110
2019-01-16T11:05:13.578Z,110
2019-01-16T11:06:13.329Z,115
2019-01-16T11:07:13.308Z,115
2019-01-16T11:08:13.299Z,120
2019-01-16T11:09:13.285Z,120
2019-01-16T11:10:13.278Z,120
2019-01-16T11:11:20.679Z,125
2019-01-16T11:12:13.256Z,125
2019-01-16T11:13:13.254Z,120
2019-01-16T11:14:13.232Z,120
2019-01-16T11:15:13.224Z,125
2019-01-16T11:16:13.207Z,125
2019-01-16T11:17:13.202Z,125
2019-01-16T11:18:13.194Z,125
2019-01-16T11:19:13.179Z,125
2019-01-16T11:20:13.177Z,125
2019-01-16T11:21:20.381Z,135
2019-01-16T11:22:13.144Z,135
2019-01-16T11:23:13.138Z,130
2019-01-16T11:24:13.127Z,125
2019-01-16T11:25:13.113Z,120
2019-01-16T11:26:13.107Z,120
2019-01-16T11:27:13.102Z,120
2019-01-16T11:28:13.081Z,115
2019-01-16T11:29:13.072Z,105
2019-01-16T11:30:13.063Z,100
2019-01-16T11:31:13.055Z,105
2019-01-16T11:32:13.039Z,110
2019-01-16T11:33:13.032Z,110
2019-01-16T11:34:12.782Z,110
2019-01-16T11:35:13.013Z,120
2019-01-16T11:36:13.013Z,125
2019-01-16T11:37:13.240Z,125
2019-01-16T11:38:12.979Z,125
2019-01-16T11:39:12.973Z,120
2019-01-16T11:40:14.307Z,110
2019-01-16T11:41:12.956Z,105
2019-01-16T11:42:13.244Z,100
2019-01-16T11:43:12.930Z,115
2019-01-16T11:44:12.921Z,125
2019-01-16T11:45:12.915Z,135
2019-01-16T11:46:12.901Z,140
2019-01-16T11:47:12.916Z,140
2019-01-16T11:48:12.640Z,135
2019-01-16T11:49:12.868Z,130
2019-01-16T11:50:12.859Z,120
2019-01-16T11:51:18.600Z,110
2019-01-16T11:52:12.839Z,105
2019-01-16T11:53:14.619Z,100
2019-01-16T11:54:12.817Z,100
2019-01-16T11:55:12.823Z,105
2019-01-16T11:56:12.798Z,105
2019-01-16T11:57:12.787Z,95
2019-01-16T11:58:12.783Z,90
2019-01-16T11:59:12.780Z,100
2019-01-16T12:00:12.762Z,115
2019-01-16T12:01:12.756Z,120
2019-01-16T12:02:12.739Z,120
2019-01-16T12:03:12.727Z,120
2019-01-16T12:04:12.484Z,120
2019-01-16T12:05:12.714Z,115
2019-01-16T12:06:12.707Z,115
2019-01-16T12:07:12.697Z,115
2019-01-16T12:08:12.936Z,110
2019-01-16T12:09:12.666Z,105
2019-01-16T12:10:12.721Z,105
2019-01-16T12:11:12.648Z,95
2019-01-16T12:12:12.634Z,90
2019-01-16T12:13:12.632Z,90
2019-01-16T12:14:12.621Z,90
2019-01-16T12:15:12.608Z,95
2019-01-16T12:16:12.600Z,90
2019-01-16T12:17:12.584Z,85
2019-01-16T12:18:12.595Z,80
2019-01-16T12:19:12.565Z,80
2019-01-16T12:20:12.556Z,80
2019-01-16T12:21:12.549Z,75
2019-01-16T12:22:12.540Z,75
2019-01-16T12:23:12.529Z,75
2019-01-16T12:24:12.517Z,75
2019-01-16T12:25:12.524Z,75
2019-01-16T12:26:17.627Z,75
2019-01-16T12:27:12.487Z,85
2019-01-16T12:28:12.481Z,85
2019-01-16T12:29:12.464Z,85
2019-01-16T12:30:12.465Z,95
2019-01-16T12:31:12.531Z,100
2019-01-16T12:32:12.439Z,100
2019-01-16T12:33:12.428Z,90
2019-01-16T12:34:12.411Z,90
2019-01-16T12:35:12.409Z,90
2019-01-16T12:36:12.393Z,85
2019-01-16T12:37:12.387Z,85
2019-01-16T12:38:12.371Z,85
2019-01-16T12:39:12.368Z,75
2019-01-16T12:40:13.575Z,75
2019-01-16T12:41:12.342Z,75
2019-01-16T12:42:12.328Z,80
2019-01-16T12:43:12.321Z,90
2019-01-16T12:44:12.308Z,100
2019-01-16T12:45:12.306Z,110
2019-01-16T12:46:12.291Z,115
2019-01-16T12:47:12.280Z,115
2019-01-16T12:48:12.274Z,115
2019-01-16T12:49:13.201Z,110
2019-01-16T12:50:12.250Z,115
2019-01-16T12:51:12.236Z,110
2019-01-16T12:52:12.233Z,105
2019-01-16T12:53:12.225Z,100
2019-01-16T12:54:12.206Z,95
2019-01-16T12:55:12.207Z,95
2019-01-16T12:56:13.499Z,90
2019-01-16T12:57:12.174Z,75
2019-01-16T12:58:18.171Z,65
2019-01-16T12:59:12.155Z,65
2019-01-16T13:00:12.145Z,65
2019-01-16T13:01:12.133Z,65
2019-01-16T13:02:12.381Z,65
2019-01-16T13:03:12.124Z,65
2019-01-16T13:04:12.102Z,65
2019-01-16T13:05:12.093Z,65
2019-01-16T13:06:12.086Z,65
2019-01-16T13:07:12.072Z,60
2019-01-16T13:08:12.057Z,65
2019-01-16T13:09:12.051Z,60
2019-01-16T13:10:12.293Z,60
2019-01-16T13:11:12.035Z,65
2019-01-16T13:12:12.017Z,65
2019-01-16T13:13:12.012Z,65
2019-01-16T13:14:12.009Z,70
2019-01-16T13:15:11.987Z,75
2019-01-16T13:16:11.987Z,70
2019-01-16T13:17:11.975Z,65
2019-01-16T13:18:11.957Z,60
2019-01-16T13:19:11.961Z,60
2019-01-16T13:20:11.941Z,60
2019-01-16T13:21:11.932Z,65
2019-01-16T13:22:11.914Z,65
2019-01-16T13:23:11.909Z,65
2019-01-16T13:24:11.906Z,65
2019-01-16T13:25:13.133Z,65
2019-01-16T13:26:11.875Z,65
2019-01-16T13:27:11.874Z,65
2019-01-16T13:28:11.859Z,70
2019-01-16T13:29:11.852Z,75
2019-01-16T13:30:11.853Z,75
2019-01-16T13:31:11.823Z,75
2019-01-16T13:32:11.817Z,75
2019-01-16T13:33:11.802Z,70
2019-01-16T13:34:11.789Z,65
2019-01-16T13:35:11.781Z,65
2019-01-16T13:36:11.796Z,65
2019-01-16T13:37:11.805Z,70
2019-01-16T13:38:11.757Z,70
2019-01-16T13:39:11.735Z,65
2019-01-16T13:40:11.726Z,65
2019-01-16T13:41:11.966Z,65
2019-01-16T13:42:11.708Z,70
2019-01-16T13:43:11.694Z,80
2019-01-16T13:44:11.683Z,85
2019-01-16T13:45:11.677Z,90
2019-01-16T13:46:11.663Z,100
2019-01-16T13:47:11.651Z,105
2019-01-16T13:48:11.650Z,110
2019-01-16T13:49:11.631Z,105
2019-01-16T13:50:11.629Z,100
2019-01-16T13:51:11.623Z,75
2019-01-16T13:52:11.601Z,60
2019-01-16T13:53:11.590Z,55
2019-01-16T13:54:11.579Z,55
2019-01-16T13:55:11.568Z,55
2019-01-16T13:56:11.567Z,60
2019-01-16T13:57:11.555Z,65
2019-01-16T13:58:11.538Z,70
2019-01-16T13:59:11.532Z,60
2019-01-16T14:00:11.523Z,65
2019-01-16T14:01:11.510Z,65
2019-01-16T14:02:11.795Z,65
2019-01-16T14:03:11.487Z,65
2019-01-16T14:04:11.481Z,65
2019-01-16T14:05:11.483Z,60
2019-01-16T14:06:11.464Z,60
2019-01-16T14:07:11.199Z,55
2019-01-16T14:08:11.442Z,60
2019-01-16T14:09:11.432Z,55
2019-01-16T14:10:11.415Z,55
2019-01-16T14:11:11.412Z,55
2019-01-16T14:12:11.409Z,55
2019-01-16T14:13:11.386Z,55
2019-01-16T14:14:11.375Z,45
2019-01-16T14:15:11.369Z,45
2019-01-16T14:16:11.351Z,40
2019-01-16T14:17:11.340Z,35
2019-01-16T14:18:11.090Z,30
2019-01-16T14:19:11.329Z,30
2019-01-16T14:20:11.306Z,25
2019-01-16T14:21:11.298Z,25
2019-01-16T14:22:11.290Z,25
2019-01-16T14:23:11.295Z,30
2019-01-16T14:24:11.266Z,30
2019-01-16T14:25:11.254Z,30
2019-01-16T14:26:11.249Z,35
2019-01-16T14:27:11.234Z,35
2019-01-16T14:28:11.227Z,40